Time;durP1;ratioP1;P1;durP2;ratioP2;P2;SDS_P1;SDS_P2;PMS_P1;PMS_P2;Temp;Humidity;BMP_temperature;BMP_pressure;BME280_temperature;BME280_humidity;BME280_pressure;Samples;Min_cycle;Max_cycle;Signal;HPM_P1;HPM_P2
2021/12/30 00:00:54;;;;;;;1.52;1.38;;;;;;;;;;4215782;28;20052;-35
2021/12/30 00:02:55;;;;;;;1.90;1.67;;;;;;;;;;4215273;28;20442;-35
2021/12/30 00:04:58;;;;;;;2.30;1.80;;;;;;;;;;4215688;28;20185;-36
2021/12/30 00:06:59;;;;;;;1.80;1.50;;;;;;;;;;4214911;28;20052;-36
2021/12/30 00:09:00;;;;;;;2.50;1.90;;;;;;;;;;4215474;28;20048;-35
2021/12/30 00:11:01;;;;;;;2.55;2.03;;;;;;;;;;4215246;28;20044;-35
2021/12/30 00:13:03;;;;;;;2.05;1.70;;;;;;;;;;4215192;28;20060;-35
2021/12/30 00:15:05;;;;;;;2.05;1.70;;;;;;;;;;4215298;28;20048;-35
2021/12/30 00:17:06;;;;;;;2.40;1.90;;;;;;;;;;4214997;28;20060;-35
2021/12/30 00:19:06;;;;;;;2.05;1.85;;;;;;;;;;4215140;28;20091;-35
2021/12/30 00:21:08;;;;;;;2.10;1.90;;;;;;;;;;4215392;28;20052;-35
2021/12/30 00:23:10;;;;;;;2.50;2.00;;;;;;;;;;4214461;28;20105;-35
2021/12/30 00:25:11;;;;;;;2.10;1.83;;;;;;;;;;4215386;28;20094;-34
2021/12/30 00:27:12;;;;;;;2.03;1.83;;;;;;;;;;4196880;28;20150;-35
2021/12/30 00:29:14;;;;;;;2.10;1.80;;;;;;;;;;4215213;28;20094;-35
2021/12/30 00:31:16;;;;;;;2.05;1.75;;;;;;;;;;4215079;28;20078;-34
2021/12/30 00:33:17;;;;;;;2.20;1.80;;;;;;;;;;4214944;28;20450;-35
2021/12/30 00:35:18;;;;;;;2.58;1.98;;;;;;;;;;4214977;28;20047;-35
2021/12/30 00:37:19;;;;;;;2.05;1.85;;;;;;;;;;4196569;28;20118;-35
2021/12/30 00:39:20;;;;;;;2.42;2.22;;;;;;;;;;4214835;28;20092;-35
2021/12/30 00:41:22;;;;;;;2.13;1.73;;;;;;;;;;4214847;28;20098;-35
2021/12/30 00:43:23;;;;;;;2.65;1.80;;;;;;;;;;4214681;28;20403;-35
2021/12/30 00:45:24;;;;;;;2.08;1.80;;;;;;;;;;4215095;28;20051;-35
2021/12/30 00:47:25;;;;;;;1.60;1.50;;;;;;;;;;4214664;28;20048;-34
2021/12/30 00:49:26;;;;;;;2.47;2.00;;;;;;;;;;4196713;28;20408;-35
2021/12/30 00:51:27;;;;;;;2.13;1.90;;;;;;;;;;4214765;28;20052;-34
2021/12/30 00:53:28;;;;;;;2.30;2.10;;;;;;;;;;4214412;28;20093;-35
2021/12/30 00:55:29;;;;;;;2.10;1.60;;;;;;;;;;4214973;28;20134;-34
2021/12/30 00:57:30;;;;;;;2.15;1.83;;;;;;;;;;4214108;28;20052;-35
2021/12/30 00:59:31;;;;;;;2.30;1.77;;;;;;;;;;4213650;28;20044;-35
2021/12/30 01:01:35;;;;;;;2.25;1.98;;;;;;;;;;4214691;28;20047;-35
2021/12/30 01:03:36;;;;;;;1.90;1.65;;;;;;;;;;4214267;28;20044;-35
2021/12/30 01:05:37;;;;;;;2.25;1.98;;;;;;;;;;4214349;28;20143;-34
2021/12/30 01:07:38;;;;;;;2.25;1.88;;;;;;;;;;4214082;28;20074;-35
2021/12/30 01:09:39;;;;;;;3.00;2.10;;;;;;;;;;4214410;28;20548;-35
2021/12/30 01:11:40;;;;;;;2.28;1.90;;;;;;;;;;4214165;28;20040;-35
2021/12/30 01:13:44;;;;;;;2.40;2.10;;;;;;;;;;4214139;28;20040;-35
2021/12/30 01:15:59;;;;;;;2.03;1.83;;;;;;;;;;4214279;28;20480;-35
2021/12/30 01:18:24;;;;;;;2.45;2.10;;;;;;;;;;4214115;28;20495;-35
2021/12/30 01:20:22;;;;;;;2.35;2.00;;;;;;;;;;4195748;28;20094;-35
2021/12/30 01:22:26;;;;;;;2.28;2.05;;;;;;;;;;4213866;28;20048;-35
2021/12/30 01:24:27;;;;;;;2.50;1.80;;;;;;;;;;4214156;28;20432;-35
2021/12/30 01:26:28;;;;;;;2.15;1.77;;;;;;;;;;4214135;28;20203;-34
2021/12/30 01:28:29;;;;;;;2.17;1.80;;;;;;;;;;4214363;28;20106;-34
2021/12/30 01:30:30;;;;;;;2.25;1.73;;;;;;;;;;4196396;28;20077;-35
2021/12/30 01:32:31;;;;;;;2.05;1.85;;;;;;;;;;4213924;28;20101;-35
2021/12/30 01:34:33;;;;;;;1.90;1.60;;;;;;;;;;4214179;28;20052;-35
2021/12/30 01:36:33;;;;;;;2.65;1.77;;;;;;;;;;4214282;28;20116;-35
2021/12/30 01:38:34;;;;;;;2.13;1.67;;;;;;;;;;4213752;28;20536;-35
2021/12/30 01:40:36;;;;;;;1.90;1.70;;;;;;;;;;4213936;28;20488;-36
2021/12/30 01:42:37;;;;;;;1.98;1.48;;;;;;;;;;4214138;28;20048;-35
2021/12/30 01:44:38;;;;;;;1.95;1.75;;;;;;;;;;4213868;28;20125;-35
2021/12/30 01:46:40;;;;;;;1.95;1.75;;;;;;;;;;4213631;28;20048;-36
2021/12/30 01:48:42;;;;;;;1.75;1.65;;;;;;;;;;4213703;28;20044;-35
2021/12/30 01:50:43;;;;;;;3.17;1.90;;;;;;;;;;4214051;28;20094;-36
2021/12/30 01:52:44;;;;;;;2.35;2.03;;;;;;;;;;4213288;28;20380;-35
2021/12/30 01:54:45;;;;;;;2.15;1.90;;;;;;;;;;4213812;28;20472;-35
2021/12/30 01:56:47;;;;;;;2.40;1.67;;;;;;;;;;4213670;28;20052;-35
2021/12/30 01:58:47;;;;;;;2.00;1.85;;;;;;;;;;4214078;28;20059;-35
2021/12/30 02:00:49;;;;;;;2.80;1.70;;;;;;;;;;4214009;28;20152;-35
2021/12/30 02:02:51;;;;;;;2.00;1.80;;;;;;;;;;4213479;28;20468;-35
2021/12/30 02:04:52;;;;;;;2.30;1.80;;;;;;;;;;4213690;28;20502;-36
2021/12/30 02:06:55;;;;;;;2.78;2.15;;;;;;;;;;4213198;28;20052;-35
2021/12/30 02:08:56;;;;;;;2.35;2.15;;;;;;;;;;4213626;28;20484;-35
2021/12/30 02:10:57;;;;;;;2.20;1.85;;;;;;;;;;4213939;28;20044;-35
2021/12/30 02:12:58;;;;;;;1.98;1.75;;;;;;;;;;4213547;28;20052;-35
2021/12/30 02:14:59;;;;;;;2.38;1.83;;;;;;;;;;4179485;28;20057;-35
2021/12/30 02:17:00;;;;;;;2.38;2.17;;;;;;;;;;4213703;28;20425;-35
2021/12/30 02:19:01;;;;;;;2.00;1.80;;;;;;;;;;4213571;28;20058;-34
2021/12/30 02:21:02;;;;;;;2.40;1.95;;;;;;;;;;4213516;28;20098;-34
2021/12/30 02:23:04;;;;;;;2.13;1.80;;;;;;;;;;4212728;28;20425;-34
2021/12/30 02:25:05;;;;;;;2.50;1.90;;;;;;;;;;4213724;28;20353;-34
2021/12/30 02:27:06;;;;;;;2.03;1.83;;;;;;;;;;4213435;28;20060;-34
2021/12/30 02:29:07;;;;;;;2.00;1.70;;;;;;;;;;4213645;28;20135;-35
2021/12/30 02:31:19;;;;;;;1.98;1.70;;;;;;;;;;4213530;28;20489;-35
2021/12/30 02:33:20;;;;;;;2.10;1.58;;;;;;;;;;4216143;28;20056;-35
2021/12/30 02:35:21;;;;;;;2.83;2.25;;;;;;;;;;4217012;28;20051;-34
2021/12/30 02:37:22;;;;;;;2.00;1.70;;;;;;;;;;4216352;28;20094;-35
2021/12/30 02:39:23;;;;;;;2.25;2.05;;;;;;;;;;4216896;28;20124;-35
2021/12/30 02:41:27;;;;;;;2.30;2.00;;;;;;;;;;4216849;28;20048;-35
2021/12/30 02:43:28;;;;;;;1.77;1.67;;;;;;;;;;4216626;28;20044;-35
2021/12/30 02:45:29;;;;;;;2.20;2.00;;;;;;;;;;4216609;28;20548;-35
2021/12/30 02:47:32;;;;;;;2.03;1.83;;;;;;;;;;4216567;28;20044;-35
2021/12/30 02:49:33;;;;;;;2.03;1.70;;;;;;;;;;4217049;28;20052;-35
2021/12/30 02:51:34;;;;;;;2.10;1.90;;;;;;;;;;4216905;28;20098;-35
2021/12/30 02:53:36;;;;;;;2.10;1.85;;;;;;;;;;4216058;28;20117;-35
2021/12/30 02:55:37;;;;;;;2.42;2.00;;;;;;;;;;4216343;28;20052;-35
2021/12/30 02:57:38;;;;;;;2.25;1.80;;;;;;;;;;4216348;28;20326;-34
2021/12/30 02:59:39;;;;;;;1.92;1.70;;;;;;;;;;4216544;28;20092;-34
2021/12/30 03:01:40;;;;;;;2.20;2.00;;;;;;;;;;4216288;28;20090;-34
2021/12/30 03:03:41;;;;;;;1.98;1.70;;;;;;;;;;4216594;28;20173;-35
2021/12/30 03:05:42;;;;;;;2.33;2.13;;;;;;;;;;4215852;28;20044;-35
2021/12/30 03:07:43;;;;;;;2.28;2.08;;;;;;;;;;4215601;28;20500;-34
2021/12/30 03:09:45;;;;;;;2.10;1.90;;;;;;;;;;4216213;28;20086;-35
2021/12/30 03:11:46;;;;;;;1.95;1.75;;;;;;;;;;4215563;28;20561;-34
2021/12/30 03:13:47;;;;;;;2.65;1.85;;;;;;;;;;4216212;28;20090;-34
2021/12/30 03:15:48;;;;;;;2.25;1.90;;;;;;;;;;4216470;28;20052;-34
2021/12/30 03:17:49;;;;;;;2.50;1.88;;;;;;;;;;4216344;28;20159;-35
2021/12/30 03:19:53;;;;;;;2.75;2.00;;;;;;;;;;4216520;28;20051;-34
2021/12/30 03:21:55;;;;;;;2.38;2.10;;;;;;;;;;4215557;28;20044;-35
2021/12/30 03:23:57;;;;;;;1.90;1.70;;;;;;;;;;4216121;28;20062;-34
2021/12/30 03:25:59;;;;;;;2.50;1.90;;;;;;;;;;4216127;28;20052;-34
2021/12/30 03:28:00;;;;;;;2.80;1.90;;;;;;;;;;4197871;28;20132;-34
2021/12/30 03:30:02;;;;;;;2.20;1.92;;;;;;;;;;4216354;28;20089;-34
2021/12/30 03:32:03;;;;;;;2.40;1.83;;;;;;;;;;4197917;28;20122;-35
2021/12/30 03:34:05;;;;;;;2.03;1.63;;;;;;;;;;4216145;28;20056;-34
2021/12/30 03:36:06;;;;;;;2.28;2.00;;;;;;;;;;4216187;28;20059;-34
2021/12/30 03:38:08;;;;;;;1.77;1.60;;;;;;;;;;4180836;28;20409;-36
2021/12/30 03:40:11;;;;;;;2.28;1.83;;;;;;;;;;4216019;28;20048;-35
2021/12/30 03:42:12;;;;;;;2.38;1.95;;;;;;;;;;4215533;28;20503;-34
2021/12/30 03:44:13;;;;;;;2.35;1.85;;;;;;;;;;4215238;28;20060;-34
2021/12/30 03:46:14;;;;;;;2.25;1.90;;;;;;;;;;4215810;28;20498;-34
2021/12/30 03:48:15;;;;;;;1.98;1.75;;;;;;;;;;4215687;28;20048;-34
2021/12/30 03:50:20;;;;;;;2.15;1.85;;;;;;;;;;4215828;28;20395;-35
2021/12/30 03:52:28;;;;;;;2.05;1.70;;;;;;;;;;4214116;28;20418;-35
2021/12/30 03:54:29;;;;;;;2.38;2.03;;;;;;;;;;4215909;28;20097;-34
2021/12/30 03:56:30;;;;;;;2.97;2.30;;;;;;;;;;4215854;28;20116;-35
2021/12/30 03:58:31;;;;;;;2.55;1.90;;;;;;;;;;4215413;28;20535;-35
2021/12/30 04:00:33;;;;;;;2.28;1.98;;;;;;;;;;4215858;28;20056;-35
2021/12/30 04:02:34;;;;;;;2.28;2.08;;;;;;;;;;4215376;28;20112;-34
2021/12/30 04:04:35;;;;;;;2.20;1.85;;;;;;;;;;4214995;28;20120;-35
2021/12/30 04:06:36;;;;;;;1.92;1.80;;;;;;;;;;4214919;28;20093;-34
2021/12/30 04:08:37;;;;;;;1.95;1.75;;;;;;;;;;4214944;28;20121;-34
2021/12/30 04:10:38;;;;;;;1.98;1.77;;;;;;;;;;4215008;28;20047;-34
2021/12/30 04:12:40;;;;;;;2.55;1.92;;;;;;;;;;4215095;28;20070;-35
2021/12/30 04:14:41;;;;;;;2.20;2.00;;;;;;;;;;4215188;28;20052;-35
2021/12/30 04:16:42;;;;;;;2.13;1.80;;;;;;;;;;4215030;28;20544;-34
2021/12/30 04:18:43;;;;;;;2.25;2.05;;;;;;;;;;4214955;28;20138;-34
2021/12/30 04:20:45;;;;;;;2.20;1.88;;;;;;;;;;4214953;28;20052;-34
2021/12/30 04:22:46;;;;;;;2.45;2.17;;;;;;;;;;4214054;28;20441;-34
2021/12/30 04:24:47;;;;;;;2.08;1.88;;;;;;;;;;4214844;28;20064;-34
2021/12/30 04:26:50;;;;;;;3.05;2.35;;;;;;;;;;4214551;28;20048;-34
2021/12/30 04:28:51;;;;;;;2.67;2.17;;;;;;;;;;4214785;28;20093;-34
2021/12/30 04:30:52;;;;;;;2.40;2.03;;;;;;;;;;4214162;28;20399;-35
2021/12/30 04:32:53;;;;;;;2.50;2.10;;;;;;;;;;4214503;28;20056;-34
2021/12/30 04:34:54;;;;;;;2.20;1.90;;;;;;;;;;4214601;28;20488;-34
2021/12/30 04:36:58;;;;;;;2.47;1.90;;;;;;;;;;4214424;28;20073;-34
2021/12/30 04:38:59;;;;;;;2.13;1.73;;;;;;;;;;4214766;28;20381;-34
2021/12/30 04:41:00;;;;;;;2.50;2.03;;;;;;;;;;4214910;28;20098;-34
2021/12/30 04:43:01;;;;;;;2.28;1.90;;;;;;;;;;4214796;28;20086;-34
2021/12/30 04:45:03;;;;;;;2.47;1.85;;;;;;;;;;4214998;28;20052;-34
2021/12/30 04:47:05;;;;;;;2.42;1.92;;;;;;;;;;4215067;28;20101;-34
2021/12/30 04:49:06;;;;;;;3.63;2.50;;;;;;;;;;4215173;28;20071;-33
2021/12/30 04:51:07;;;;;;;3.20;2.15;;;;;;;;;;4196593;28;20071;-34
2021/12/30 04:53:08;;;;;;;2.28;1.92;;;;;;;;;;4214301;28;20104;-34
2021/12/30 04:55:09;;;;;;;2.60;1.95;;;;;;;;;;4179354;28;20053;-34
2021/12/30 04:57:10;;;;;;;2.35;1.92;;;;;;;;;;4214562;28;20373;-34
2021/12/30 04:59:11;;;;;;;2.28;2.00;;;;;;;;;;4214641;28;20096;-34
2021/12/30 05:01:12;;;;;;;2.58;2.03;;;;;;;;;;4214886;28;20059;-34
2021/12/30 05:03:14;;;;;;;1.80;1.50;;;;;;;;;;4214589;28;20498;-34
2021/12/30 05:05:15;;;;;;;2.30;2.03;;;;;;;;;;4214239;28;20475;-33
2021/12/30 05:07:16;;;;;;;1.90;1.70;;;;;;;;;;4213603;28;20082;-34
2021/12/30 05:09:17;;;;;;;2.08;1.88;;;;;;;;;;4213653;28;20109;-35
2021/12/30 05:11:18;;;;;;;1.98;1.77;;;;;;;;;;4196335;28;20094;-34
2021/12/30 05:13:19;;;;;;;2.03;1.83;;;;;;;;;;4213540;28;20116;-34
2021/12/30 05:15:20;;;;;;;1.83;1.73;;;;;;;;;;4213837;28;20044;-34
2021/12/30 05:17:22;;;;;;;2.75;2.15;;;;;;;;;;4214079;28;20505;-34
2021/12/30 05:19:23;;;;;;;3.33;2.22;;;;;;;;;;4213360;28;20055;-34
2021/12/30 05:21:25;;;;;;;2.35;1.92;;;;;;;;;;4196516;28;20482;-34
2021/12/30 05:23:26;;;;;;;2.42;1.90;;;;;;;;;;4212263;28;20063;-34
2021/12/30 05:25:27;;;;;;;2.50;1.65;;;;;;;;;;4197276;28;20375;-34
2021/12/30 05:27:28;;;;;;;2.05;1.85;;;;;;;;;;4197219;28;20044;-33
2021/12/30 05:29:29;;;;;;;2.63;2.25;;;;;;;;;;4197592;28;20487;-34
2021/12/30 05:31:31;;;;;;;2.30;1.98;;;;;;;;;;4197731;28;20048;-34
2021/12/30 05:33:32;;;;;;;2.53;2.10;;;;;;;;;;4197571;28;20373;-35
2021/12/30 05:35:33;;;;;;;2.30;2.05;;;;;;;;;;4197639;28;20060;-34
2021/12/30 05:37:34;;;;;;;3.17;2.35;;;;;;;;;;4196040;28;20045;-36
2021/12/30 05:39:40;;;;;;;2.88;2.40;;;;;;;;;;4197519;28;20126;-35
2021/12/30 05:41:41;;;;;;;2.90;2.50;;;;;;;;;;4197436;28;20326;-34
2021/12/30 05:43:42;;;;;;;2.58;2.28;;;;;;;;;;4197570;28;20044;-34
2021/12/30 05:45:43;;;;;;;2.50;2.28;;;;;;;;;;4197562;28;20570;-34
2021/12/30 05:47:47;;;;;;;2.50;2.30;;;;;;;;;;4197126;28;20381;-34
2021/12/30 05:49:48;;;;;;;2.75;2.20;;;;;;;;;;4197165;28;20053;-34
2021/12/30 05:51:49;;;;;;;3.47;2.53;;;;;;;;;;4196542;28;20477;-34
2021/12/30 05:53:50;;;;;;;3.53;2.80;;;;;;;;;;4197374;28;20174;-34
2021/12/30 05:55:51;;;;;;;2.95;2.60;;;;;;;;;;4197207;28;20090;-34
2021/12/30 05:57:54;;;;;;;2.88;2.33;;;;;;;;;;4197130;28;20094;-34
2021/12/30 05:59:55;;;;;;;3.25;2.63;;;;;;;;;;4196148;28;20091;-33
2021/12/30 06:01:56;;;;;;;2.85;2.40;;;;;;;;;;4197142;28;20468;-33
2021/12/30 06:03:57;;;;;;;2.55;2.30;;;;;;;;;;4197421;28;20201;-33
2021/12/30 06:05:58;;;;;;;3.15;2.42;;;;;;;;;;4197193;28;20080;-34
2021/12/30 06:07:59;;;;;;;2.90;2.25;;;;;;;;;;4196416;28;20044;-33
2021/12/30 06:10:00;;;;;;;3.03;2.72;;;;;;;;;;4197383;28;20048;-34
2021/12/30 06:12:01;;;;;;;2.53;2.30;;;;;;;;;;4196824;28;20102;-34
2021/12/30 06:14:02;;;;;;;2.65;2.30;;;;;;;;;;4197174;28;20097;-34
2021/12/30 06:16:04;;;;;;;2.55;2.35;;;;;;;;;;4197165;28;20090;-33
2021/12/30 06:18:05;;;;;;;3.08;2.50;;;;;;;;;;4196756;28;20505;-34
2021/12/30 06:20:07;;;;;;;2.65;2.38;;;;;;;;;;4196017;28;20044;-34
2021/12/30 06:22:08;;;;;;;2.50;2.30;;;;;;;;;;4195212;28;20044;-34
2021/12/30 06:24:09;;;;;;;2.88;2.28;;;;;;;;;;4207542;28;20094;-35
2021/12/30 06:26:10;;;;;;;3.72;2.45;;;;;;;;;;4213650;28;20434;-34
2021/12/30 06:28:11;;;;;;;2.35;2.15;;;;;;;;;;4213488;28;20044;-34
2021/12/30 06:30:13;;;;;;;2.88;2.30;;;;;;;;;;4213696;28;20112;-34
2021/12/30 06:32:13;;;;;;;2.42;2.22;;;;;;;;;;4213498;28;20334;-34
2021/12/30 06:34:14;;;;;;;2.63;2.20;;;;;;;;;;4213649;28;20124;-34
2021/12/30 06:36:17;;;;;;;2.30;2.10;;;;;;;;;;4213674;28;20052;-34
2021/12/30 06:38:18;;;;;;;2.60;2.00;;;;;;;;;;4213138;28;20078;-34
2021/12/30 06:40:19;;;;;;;2.30;1.98;;;;;;;;;;4213717;28;20047;-34
2021/12/30 06:42:20;;;;;;;2.50;2.17;;;;;;;;;;4213475;28;20475;-34
2021/12/30 06:44:21;;;;;;;2.55;1.98;;;;;;;;;;4213445;28;20172;-34
2021/12/30 06:46:23;;;;;;;2.42;2.13;;;;;;;;;;4213652;28;20055;-34
2021/12/30 06:48:25;;;;;;;2.92;2.30;;;;;;;;;;4213820;28;20044;-35
2021/12/30 06:50:31;;;;;;;2.70;2.20;;;;;;;;;;4213440;28;20093;-35
2021/12/30 06:52:32;;;;;;;2.00;1.80;;;;;;;;;;4213289;28;20472;-35
2021/12/30 06:54:33;;;;;;;3.30;2.60;;;;;;;;;;4195442;28;20101;-35
2021/12/30 06:56:35;;;;;;;1.92;1.77;;;;;;;;;;4195610;28;20063;-34
2021/12/30 06:58:37;;;;;;;2.25;1.92;;;;;;;;;;4213253;28;20056;-34
2021/12/30 07:00:38;;;;;;;2.40;1.98;;;;;;;;;;4213413;28;20410;-34
2021/12/30 07:02:40;;;;;;;2.25;2.00;;;;;;;;;;4213113;28;20170;-34
2021/12/30 07:04:41;;;;;;;2.35;2.00;;;;;;;;;;4213331;28;20097;-35
2021/12/30 07:06:42;;;;;;;2.55;1.73;;;;;;;;;;4194980;28;20052;-34
2021/12/30 07:08:43;;;;;;;2.05;1.83;;;;;;;;;;4213335;28;20487;-34
2021/12/30 07:10:44;;;;;;;2.35;2.00;;;;;;;;;;4213568;28;20074;-35
2021/12/30 07:12:45;;;;;;;2.67;2.08;;;;;;;;;;4195119;28;20060;-34
2021/12/30 07:14:46;;;;;;;2.28;2.08;;;;;;;;;;4213211;28;20078;-34
2021/12/30 07:16:47;;;;;;;2.15;1.75;;;;;;;;;;4213347;28;20102;-34
2021/12/30 07:18:48;;;;;;;2.35;1.80;;;;;;;;;;4214879;28;20056;-34
2021/12/30 07:20:49;;;;;;;2.22;1.80;;;;;;;;;;4216193;28;20449;-34
2021/12/30 07:22:50;;;;;;;2.40;2.20;;;;;;;;;;4215839;28;20048;-35
2021/12/30 07:24:51;;;;;;;2.13;1.92;;;;;;;;;;4216047;28;20099;-34
2021/12/30 07:26:52;;;;;;;2.15;1.95;;;;;;;;;;4216065;28;20044;-35
2021/12/30 07:28:53;;;;;;;2.30;2.08;;;;;;;;;;4216377;28;20101;-34
2021/12/30 07:30:54;;;;;;;1.67;1.55;;;;;;;;;;4216274;28;20083;-34
2021/12/30 07:32:55;;;;;;;1.88;1.70;;;;;;;;;;4216029;28;20094;-34
2021/12/30 07:34:56;;;;;;;2.17;1.83;;;;;;;;;;4215768;28;20056;-35
2021/12/30 07:36:57;;;;;;;2.10;1.90;;;;;;;;;;4215391;28;20480;-34
2021/12/30 07:38:58;;;;;;;3.30;1.90;;;;;;;;;;4215934;28;20056;-34
2021/12/30 07:40:59;;;;;;;2.28;2.05;;;;;;;;;;4198240;28;20115;-34
2021/12/30 07:43:01;;;;;;;1.70;1.52;;;;;;;;;;4197826;28;20052;-35
2021/12/30 07:45:03;;;;;;;1.65;1.50;;;;;;;;;;4216042;28;20052;-36
2021/12/30 07:47:04;;;;;;;2.03;1.80;;;;;;;;;;4216102;28;20056;-35
2021/12/30 07:49:06;;;;;;;2.65;1.98;;;;;;;;;;4216157;28;20052;-34
2021/12/30 07:51:07;;;;;;;1.98;1.80;;;;;;;;;;4215758;28;20550;-35
2021/12/30 07:53:08;;;;;;;1.98;1.70;;;;;;;;;;4197631;28;20048;-35
2021/12/30 07:55:10;;;;;;;2.15;1.60;;;;;;;;;;4215796;28;20048;-34
2021/12/30 07:57:11;;;;;;;1.77;1.67;;;;;;;;;;4215881;28;20044;-34
2021/12/30 07:59:12;;;;;;;2.20;1.95;;;;;;;;;;4197955;28;20094;-34
2021/12/30 08:01:13;;;;;;;2.17;1.98;;;;;;;;;;4215831;28;20052;-35
2021/12/30 08:03:14;;;;;;;1.92;1.77;;;;;;;;;;4197671;28;20483;-34
2021/12/30 08:05:17;;;;;;;2.10;1.90;;;;;;;;;;4215668;28;20055;-34
2021/12/30 08:07:22;;;;;;;2.55;2.22;;;;;;;;;;4215185;28;20052;-35
2021/12/30 08:09:23;;;;;;;2.10;1.90;;;;;;;;;;4215538;28;20395;-34
2021/12/30 08:11:24;;;;;;;2.80;2.10;;;;;;;;;;4215696;28;20056;-34
2021/12/30 08:13:26;;;;;;;2.10;1.90;;;;;;;;;;4215449;28;20093;-35
2021/12/30 08:15:27;;;;;;;2.47;1.58;;;;;;;;;;4215439;28;20413;-34
2021/12/30 08:17:28;;;;;;;2.92;2.15;;;;;;;;;;4215306;28;20098;-34
2021/12/30 08:19:29;;;;;;;1.98;1.75;;;;;;;;;;4215147;28;20087;-35
2021/12/30 08:21:30;;;;;;;2.28;1.83;;;;;;;;;;4215502;28;20051;-34
2021/12/30 08:23:31;;;;;;;2.13;1.70;;;;;;;;;;4214575;28;20052;-34
2021/12/30 08:25:32;;;;;;;3.08;2.00;;;;;;;;;;4197082;28;20132;-34
2021/12/30 08:27:33;;;;;;;2.85;2.13;;;;;;;;;;4214489;28;20189;-34
2021/12/30 08:29:34;;;;;;;2.80;2.17;;;;;;;;;;4213863;28;20430;-34
2021/12/30 08:31:35;;;;;;;2.28;2.08;;;;;;;;;;4214597;28;20161;-34
2021/12/30 08:33:37;;;;;;;2.55;2.00;;;;;;;;;;4214772;28;20051;-34
2021/12/30 08:35:37;;;;;;;1.98;1.77;;;;;;;;;;4196769;28;20098;-34
2021/12/30 08:37:39;;;;;;;2.03;1.60;;;;;;;;;;4214358;28;20064;-34
2021/12/30 08:39:40;;;;;;;2.00;1.80;;;;;;;;;;4196973;28;20057;-35
2021/12/30 08:41:41;;;;;;;2.17;1.98;;;;;;;;;;4214935;28;20047;-34
2021/12/30 08:43:42;;;;;;;1.60;1.50;;;;;;;;;;4215254;28;20048;-34
2021/12/30 08:45:44;;;;;;;2.42;2.03;;;;;;;;;;4214737;28;20073;-34
2021/12/30 08:47:45;;;;;;;2.00;1.80;;;;;;;;;;4214895;28;20048;-34
2021/12/30 08:49:46;;;;;;;1.88;1.73;;;;;;;;;;4214885;28;20089;-34
2021/12/30 08:51:47;;;;;;;1.55;1.40;;;;;;;;;;4214579;28;20070;-34
2021/12/30 08:53:48;;;;;;;1.95;1.50;;;;;;;;;;4215097;28;20131;-34
2021/12/30 08:55:49;;;;;;;1.65;1.55;;;;;;;;;;4214803;28;20048;-35
2021/12/30 08:57:50;;;;;;;1.65;1.50;;;;;;;;;;4214837;28;20052;-35
2021/12/30 08:59:51;;;;;;;2.40;1.92;;;;;;;;;;4214782;28;20438;-35
2021/12/30 09:01:52;;;;;;;2.00;1.58;;;;;;;;;;4214778;28;20058;-34
2021/12/30 09:03:53;;;;;;;1.85;1.60;;;;;;;;;;4214709;28;20052;-34
2021/12/30 09:05:54;;;;;;;2.15;1.60;;;;;;;;;;4214889;28;20107;-35
2021/12/30 09:07:55;;;;;;;1.80;1.67;;;;;;;;;;4214358;28;20040;-35
2021/12/30 09:09:56;;;;;;;2.30;1.80;;;;;;;;;;4214855;28;20160;-35
2021/12/30 09:11:57;;;;;;;2.20;1.88;;;;;;;;;;4214498;28;20493;-35
2021/12/30 09:13:58;;;;;;;1.63;1.50;;;;;;;;;;4214347;28;20535;-34
2021/12/30 09:15:59;;;;;;;1.83;1.50;;;;;;;;;;4214208;28;20423;-35
2021/12/30 09:18:01;;;;;;;2.10;1.60;;;;;;;;;;4214041;28;20052;-34
2021/12/30 09:20:02;;;;;;;2.58;2.00;;;;;;;;;;4214224;28;20052;-34
2021/12/30 09:22:03;;;;;;;2.35;1.60;;;;;;;;;;4213699;28;20063;-34
2021/12/30 09:24:05;;;;;;;2.42;1.63;;;;;;;;;;4213919;28;20105;-34
2021/12/30 09:26:06;;;;;;;2.10;1.90;;;;;;;;;;4214314;28;20055;-34
2021/12/30 09:28:11;;;;;;;2.25;1.50;;;;;;;;;;4213987;28;20059;-35
2021/12/30 09:30:13;;;;;;;1.85;1.50;;;;;;;;;;4214169;28;20086;-34
2021/12/30 09:32:14;;;;;;;2.22;1.52;;;;;;;;;;4214030;28;20056;-35
2021/12/30 09:34:16;;;;;;;1.75;1.63;;;;;;;;;;4214372;28;20048;-34
2021/12/30 09:36:17;;;;;;;1.95;1.80;;;;;;;;;;4214064;28;20392;-34
2021/12/30 09:38:19;;;;;;;2.08;1.80;;;;;;;;;;4213762;28;20396;-34
2021/12/30 09:40:20;;;;;;;2.65;2.03;;;;;;;;;;4213989;28;20051;-34
2021/12/30 09:42:22;;;;;;;1.90;1.75;;;;;;;;;;4213487;28;20044;-34
2021/12/30 09:44:23;;;;;;;2.50;1.83;;;;;;;;;;4214284;28;20055;-34
2021/12/30 09:46:24;;;;;;;3.33;1.90;;;;;;;;;;4196057;28;20110;-35
2021/12/30 09:48:25;;;;;;;2.78;1.85;;;;;;;;;;4213960;28;20044;-34
2021/12/30 09:50:29;;;;;;;1.95;1.70;;;;;;;;;;4213854;28;20048;-35
2021/12/30 09:52:29;;;;;;;2.58;1.67;;;;;;;;;;4213564;28;20093;-35
2021/12/30 09:54:31;;;;;;;3.38;1.73;;;;;;;;;;4213914;28;20048;-34
2021/12/30 09:56:32;;;;;;;2.03;1.83;;;;;;;;;;4214068;28;20110;-35
2021/12/30 09:58:33;;;;;;;1.88;1.52;;;;;;;;;;4195804;28;20466;-34
2021/12/30 10:00:34;;;;;;;2.35;1.80;;;;;;;;;;4213995;28;20117;-34
2021/12/30 10:02:35;;;;;;;2.20;1.90;;;;;;;;;;4195519;28;20044;-34
2021/12/30 10:04:36;;;;;;;2.05;1.85;;;;;;;;;;4213550;28;20508;-34
2021/12/30 10:06:45;;;;;;;3.08;2.00;;;;;;;;;;4195265;28;20098;-34
2021/12/30 10:08:54;;;;;;;1.77;1.63;;;;;;;;;;4213473;28;20097;-35
2021/12/30 10:10:56;;;;;;;1.63;1.42;;;;;;;;;;4196014;28;20086;-35
2021/12/30 10:12:58;;;;;;;2.08;1.63;;;;;;;;;;4213441;28;20056;-35
2021/12/30 10:15:00;;;;;;;2.50;2.13;;;;;;;;;;4213493;28;20052;-34
2021/12/30 10:17:16;;;;;;;2.50;1.90;;;;;;;;;;4213704;28;20052;-34
2021/12/30 10:19:25;;;;;;;2.42;1.95;;;;;;;;;;4213934;28;20052;-34
2021/12/30 10:21:29;;;;;;;2.05;1.85;;;;;;;;;;4212968;28;20052;-34
2021/12/30 10:23:30;;;;;;;2.25;1.90;;;;;;;;;;4212929;28;20060;-34
2021/12/30 10:25:33;;;;;;;2.85;2.33;;;;;;;;;;4213662;28;20055;-34
2021/12/30 10:27:34;;;;;;;1.98;1.73;;;;;;;;;;4213529;28;20052;-34
2021/12/30 10:29:42;;;;;;;1.75;1.50;;;;;;;;;;4195715;28;20087;-34
2021/12/30 10:31:43;;;;;;;1.63;1.38;;;;;;;;;;4213372;28;20044;-34
2021/12/30 10:33:56;;;;;;;1.65;1.52;;;;;;;;;;4213641;28;20052;-34
2021/12/30 10:35:57;;;;;;;2.00;1.67;;;;;;;;;;4213986;28;20056;-34
2021/12/30 10:38:03;;;;;;;1.23;1.13;;;;;;;;;;4213602;28;20048;-35
2021/12/30 10:40:05;;;;;;;2.03;1.48;;;;;;;;;;4213290;28;20499;-34
2021/12/30 10:42:06;;;;;;;1.70;1.45;;;;;;;;;;4213262;28;20056;-35
2021/12/30 10:44:07;;;;;;;1.85;1.40;;;;;;;;;;4213849;28;20108;-34
2021/12/30 10:46:09;;;;;;;2.22;1.40;;;;;;;;;;4213568;28;20059;-34
2021/12/30 10:48:10;;;;;;;1.88;1.48;;;;;;;;;;4195853;28;20090;-34
2021/12/30 10:50:12;;;;;;;1.55;1.30;;;;;;;;;;4213971;28;20069;-34
2021/12/30 10:52:15;;;;;;;1.60;1.50;;;;;;;;;;4213514;28;20094;-34
2021/12/30 10:54:30;;;;;;;1.50;1.27;;;;;;;;;;4216022;28;20051;-34
2021/12/30 10:56:33;;;;;;;2.35;1.55;;;;;;;;;;4217216;28;20051;-34
2021/12/30 10:58:34;;;;;;;1.60;1.50;;;;;;;;;;4216687;28;20121;-34
2021/12/30 11:00:35;;;;;;;1.52;1.30;;;;;;;;;;4216870;28;20048;-34
2021/12/30 11:02:36;;;;;;;1.90;1.42;;;;;;;;;;4216555;28;20494;-34
2021/12/30 11:04:40;;;;;;;1.00;0.90;;;;;;;;;;4216620;28;20059;-34
2021/12/30 11:06:41;;;;;;;1.40;1.30;;;;;;;;;;4216355;28;20429;-34
2021/12/30 11:08:43;;;;;;;1.70;1.10;;;;;;;;;;4216793;28;20533;-34
2021/12/30 11:10:44;;;;;;;1.17;1.02;;;;;;;;;;4216828;28;20048;-34
2021/12/30 11:12:46;;;;;;;1.67;1.30;;;;;;;;;;4216482;28;20094;-34
2021/12/30 11:14:47;;;;;;;1.75;1.20;;;;;;;;;;4198546;28;20400;-34
2021/12/30 11:17:14;;;;;;;1.65;1.55;;;;;;;;;;4216183;28;20059;-35
2021/12/30 11:19:17;;;;;;;1.50;1.25;;;;;;;;;;4216344;28;20060;-35
2021/12/30 11:21:34;;;;;;;1.98;1.10;;;;;;;;;;4216852;28;20090;-35
2021/12/30 11:23:35;;;;;;;1.70;1.10;;;;;;;;;;4215764;28;20052;-34
2021/12/30 11:25:36;;;;;;;1.23;1.10;;;;;;;;;;4216292;28;20102;-35
2021/12/30 11:27:37;;;;;;;1.80;1.27;;;;;;;;;;4216299;28;20170;-35
2021/12/30 11:29:39;;;;;;;1.40;1.20;;;;;;;;;;4198379;28;20558;-34
2021/12/30 11:31:40;;;;;;;1.20;1.00;;;;;;;;;;4215612;28;20387;-35
2021/12/30 11:33:41;;;;;;;1.48;1.20;;;;;;;;;;4216204;28;20097;-33
2021/12/30 11:35:42;;;;;;;1.05;0.82;;;;;;;;;;4216102;28;20429;-35
2021/12/30 11:37:45;;;;;;;1.65;1.00;;;;;;;;;;4215855;28;20253;-34
2021/12/30 11:39:47;;;;;;;1.42;1.13;;;;;;;;;;4215919;28;20061;-33
2021/12/30 11:42:02;;;;;;;1.23;1.05;;;;;;;;;;4197720;28;20480;-34
2021/12/30 11:44:03;;;;;;;1.77;1.23;;;;;;;;;;4215946;28;20442;-34
2021/12/30 11:46:04;;;;;;;1.30;1.05;;;;;;;;;;4215962;28;20063;-34
2021/12/30 11:48:25;;;;;;;1.83;1.13;;;;;;;;;;4215960;28;20138;-34
2021/12/30 11:50:27;;;;;;;1.25;1.10;;;;;;;;;;4215907;28;20491;-34
2021/12/30 11:52:47;;;;;;;1.60;1.38;;;;;;;;;;4215590;28;20120;-34
2021/12/30 11:54:47;;;;;;;1.83;1.10;;;;;;;;;;4215830;28;20440;-34
2021/12/30 11:57:08;;;;;;;1.25;0.95;;;;;;;;;;4215605;28;20086;-35
2021/12/30 11:59:09;;;;;;;1.67;1.35;;;;;;;;;;4215894;28;20055;-34
2021/12/30 12:01:10;;;;;;;1.85;1.30;;;;;;;;;;4215797;28;20368;-34
2021/12/30 12:03:29;;;;;;;1.50;1.10;;;;;;;;;;4197571;28;20154;-34
2021/12/30 12:05:41;;;;;;;1.70;1.10;;;;;;;;;;4215409;28;20124;-34
2021/12/30 12:08:01;;;;;;;1.73;1.38;;;;;;;;;;4215240;28;20048;-34
2021/12/30 12:10:14;;;;;;;1.10;1.00;;;;;;;;;;4215718;28;20097;-34
2021/12/30 12:12:36;;;;;;;1.63;1.27;;;;;;;;;;4215682;28;20105;-34